createdAt,value
2017-10-22T00:01:57.819Z,39.52
2017-10-22T00:04:25.131Z,39.55
2017-10-22T00:06:52.381Z,39.57
2017-10-22T00:09:20.547Z,39.62
2017-10-22T00:11:49.191Z,39.66
2017-10-22T00:14:16.396Z,39.66
2017-10-22T00:16:43.632Z,39.68
2017-10-22T00:19:10.823Z,39.63
2017-10-22T00:21:37.972Z,39.62
2017-10-22T00:24:05.207Z,39.66
2017-10-22T00:26:32.422Z,39.63
2017-10-22T00:28:59.648Z,39.61
2017-10-22T00:31:26.852Z,39.65
2017-10-22T00:33:54.391Z,39.61
2017-10-22T00:36:21.553Z,39.63
2017-10-22T00:38:48.754Z,39.66
2017-10-22T00:41:15.923Z,39.68
2017-10-22T00:43:43.127Z,39.64
2017-10-22T00:46:10.327Z,39.67
2017-10-22T00:48:37.582Z,39.67
2017-10-22T00:51:04.835Z,39.70
2017-10-22T00:53:31.993Z,39.74
2017-10-22T00:55:59.343Z,39.74
2017-10-22T00:58:26.528Z,39.74
2017-10-22T01:08:33.374Z,39.78
2017-10-22T01:11:00.688Z,39.75
2017-10-22T01:13:27.857Z,39.77
2017-10-22T01:15:55.176Z,39.76
2017-10-22T01:18:22.359Z,39.78
2017-10-22T01:20:49.707Z,39.79
2017-10-22T01:23:16.922Z,39.81
2017-10-22T01:25:44.327Z,39.81
2017-10-22T01:28:11.555Z,39.80
2017-10-22T01:30:38.752Z,39.79
2017-10-22T01:33:05.942Z,39.86
2017-10-22T01:35:33.204Z,39.84
2017-10-22T01:38:00.417Z,39.83
2017-10-22T01:40:28.605Z,39.87
2017-10-22T02:08:31.154Z,39.90
2017-10-22T02:16:05.071Z,39.91
2017-10-22T02:18:32.278Z,39.90
2017-10-22T02:20:59.588Z,39.91
2017-10-22T02:23:26.820Z,39.91
2017-10-22T02:25:54.128Z,39.90
2017-10-22T02:28:21.305Z,39.92
2017-10-22T02:30:48.532Z,39.94
2017-10-22T02:33:15.790Z,39.95
2017-10-22T03:21:53.727Z,40.13
2017-10-22T03:24:20.952Z,40.17
2017-10-22T03:26:48.167Z,40.13
2017-10-22T03:29:15.362Z,40.17
2017-10-22T03:31:42.577Z,40.14
2017-10-22T03:34:09.770Z,40.15
2017-10-22T03:36:37.055Z,40.14
2017-10-22T03:39:04.210Z,40.14
2017-10-22T03:41:31.469Z,40.16
2017-10-22T03:43:58.655Z,40.21
2017-10-22T03:46:25.861Z,40.18
2017-10-22T03:48:53.139Z,40.23
2017-10-22T03:51:20.382Z,40.25
2017-10-22T03:53:47.649Z,40.25
2017-10-22T03:56:14.875Z,40.25
2017-10-22T03:58:42.219Z,40.29
2017-10-22T04:01:09.384Z,40.27
2017-10-22T04:03:36.668Z,40.30
2017-10-22T04:06:03.944Z,40.29
2017-10-22T04:08:31.143Z,40.32
2017-10-22T04:10:58.346Z,40.37
2017-10-22T04:23:56.684Z,40.39
2017-10-22T04:26:31.969Z,40.39
2017-10-22T04:34:19.450Z,40.40
2017-10-22T04:36:46.683Z,40.45
2017-10-22T04:39:13.850Z,40.46
2017-10-22T04:41:41.063Z,40.46
2017-10-22T04:44:08.347Z,40.48
2017-10-22T04:46:37.083Z,40.48
2017-10-22T04:49:04.372Z,40.49
2017-10-22T04:51:31.538Z,40.43
2017-10-22T04:53:58.755Z,40.42
2017-10-22T04:56:25.988Z,40.43
2017-10-22T04:58:53.144Z,40.45
2017-10-22T05:04:15.237Z,40.45
2017-10-22T05:06:42.413Z,40.44
2017-10-22T05:09:09.604Z,40.46
2017-10-22T05:11:36.741Z,40.43
2017-10-22T05:14:03.987Z,40.42
2017-10-22T05:16:31.281Z,40.42
2017-10-22T05:18:58.495Z,40.35
2017-10-22T05:21:25.699Z,40.34
2017-10-22T05:23:52.942Z,40.39
2017-10-22T05:26:20.123Z,40.33
2017-10-22T05:28:47.387Z,40.43
2017-10-22T05:31:14.568Z,40.38
2017-10-22T05:33:41.751Z,40.30
2017-10-22T05:36:08.943Z,40.30
2017-10-22T05:38:36.143Z,40.24
2017-10-22T05:43:45.749Z,40.14
2017-10-22T05:46:12.950Z,40.13
2017-10-22T05:48:40.140Z,40.26
2017-10-22T05:51:07.348Z,40.40
2017-10-22T05:53:34.537Z,40.04
2017-10-22T05:56:01.703Z,39.88
2017-10-22T05:58:28.926Z,39.81
2017-10-22T06:00:56.099Z,39.73
2017-10-22T06:03:23.324Z,39.72
2017-10-22T06:05:50.523Z,39.63
2017-10-22T06:08:17.739Z,39.61
2017-10-22T06:10:44.961Z,39.68
2017-10-22T06:13:12.193Z,39.71
2017-10-22T06:15:39.356Z,39.70
2017-10-22T06:18:06.565Z,39.72
2017-10-22T06:20:33.717Z,39.69
2017-10-22T06:23:00.907Z,39.68
2017-10-22T06:25:28.110Z,39.71
2017-10-22T06:27:55.269Z,39.71
2017-10-22T06:30:22.472Z,39.73
2017-10-22T06:32:49.639Z,39.69
2017-10-22T06:35:16.796Z,39.78
2017-10-22T06:37:44.089Z,39.77
2017-10-22T06:40:11.244Z,39.81
2017-10-22T06:42:38.408Z,39.80
2017-10-22T06:45:05.618Z,39.79
2017-10-22T06:47:32.796Z,39.79
2017-10-22T06:50:00.114Z,39.77
2017-10-22T06:52:27.370Z,39.67
2017-10-22T06:54:54.577Z,39.66
2017-10-22T06:57:21.827Z,39.69
2017-10-22T06:59:49.012Z,39.74
2017-10-22T07:02:16.205Z,39.27
2017-10-22T07:04:43.376Z,39.23
2017-10-22T07:07:10.573Z,39.13
2017-10-22T07:09:37.775Z,39.12
2017-10-22T07:12:04.957Z,38.91
2017-10-22T07:14:32.174Z,38.81
2017-10-22T07:16:59.343Z,38.67
2017-10-22T07:19:26.516Z,38.83
2017-10-22T07:21:53.847Z,38.76
2017-10-22T07:24:21.052Z,38.73
2017-10-22T07:26:48.268Z,38.46
2017-10-22T07:29:15.498Z,38.53
2017-10-22T07:31:42.692Z,38.40
2017-10-22T07:34:09.867Z,38.33
2017-10-22T07:36:37.101Z,38.20
2017-10-22T07:39:04.247Z,38.27
2017-10-22T07:41:31.428Z,38.14
2017-10-22T07:43:58.711Z,38.08
2017-10-22T07:46:25.933Z,38.09
2017-10-22T07:48:53.253Z,38.13
2017-10-22T07:51:20.417Z,38.22
2017-10-22T07:53:47.619Z,38.07
2017-10-22T07:56:14.819Z,38.04
2017-10-22T07:58:42.014Z,38.02
2017-10-22T08:01:09.247Z,38.04
2017-10-22T08:03:36.482Z,38.04
2017-10-22T08:06:03.700Z,38.05
2017-10-22T08:08:30.882Z,38.01
2017-10-22T08:10:58.092Z,37.99
2017-10-22T08:13:25.316Z,38.00
2017-10-22T08:15:52.548Z,38.03
2017-10-22T08:18:19.759Z,38.07
2017-10-22T08:20:46.944Z,37.95
2017-10-22T08:23:14.140Z,38.00
2017-10-22T08:25:41.350Z,38.02
2017-10-22T08:28:08.534Z,37.96
2017-10-22T08:30:35.867Z,37.95
2017-10-22T08:33:03.124Z,37.94
2017-10-22T08:35:30.302Z,37.92
2017-10-22T08:37:57.495Z,38.00
2017-10-22T08:40:24.665Z,37.97
2017-10-22T08:42:51.865Z,37.97
2017-10-22T08:45:19.108Z,37.96
2017-10-22T08:47:46.284Z,37.94
2017-10-22T08:50:13.444Z,38.01
2017-10-22T08:52:40.673Z,37.87
2017-10-22T08:55:07.832Z,37.87
2017-10-22T08:57:34.988Z,37.89
2017-10-22T09:00:02.241Z,37.88
2017-10-22T09:02:29.456Z,37.92
2017-10-22T09:04:56.616Z,37.93
2017-10-22T09:07:23.841Z,38.00
2017-10-22T09:09:51.008Z,37.99
2017-10-22T09:12:18.296Z,38.03
2017-10-22T09:14:45.469Z,38.02
2017-10-22T09:17:12.679Z,38.04
2017-10-22T09:19:39.882Z,37.93
2017-10-22T09:22:07.078Z,37.90
2017-10-22T09:24:34.288Z,37.85
2017-10-22T09:27:01.458Z,37.87
2017-10-22T09:29:28.646Z,37.88
2017-10-22T09:31:55.819Z,37.83
2017-10-22T09:34:23.011Z,37.78
2017-10-22T09:36:50.201Z,37.76
2017-10-22T09:41:50.735Z,37.77
2017-10-22T09:44:17.926Z,37.84
2017-10-22T09:46:45.160Z,37.89
2017-10-22T09:49:12.397Z,37.93
2017-10-22T09:51:39.633Z,37.74
2017-10-22T09:54:06.804Z,37.79
2017-10-22T09:56:33.980Z,37.78
2017-10-22T09:59:01.243Z,37.75
2017-10-22T10:01:28.447Z,37.59
2017-10-22T10:03:55.662Z,37.88
2017-10-22T10:06:22.853Z,37.89
2017-10-22T10:08:50.208Z,38.04
2017-10-22T10:11:17.416Z,37.98
2017-10-22T10:13:44.592Z,37.85
2017-10-22T10:16:11.791Z,37.86
2017-10-22T10:18:38.971Z,37.84
2017-10-22T10:21:06.151Z,37.91
2017-10-22T10:23:33.334Z,38.00
2017-10-22T10:26:00.549Z,37.84
2017-10-22T10:28:27.747Z,37.65
2017-10-22T10:30:54.913Z,37.71
2017-10-22T10:33:22.200Z,37.68
2017-10-22T10:35:49.380Z,37.59
2017-10-22T10:38:16.576Z,37.56
2017-10-22T10:40:43.817Z,37.54
2017-10-22T10:43:11.050Z,37.42
2017-10-22T10:45:38.224Z,37.58
2017-10-22T10:48:05.384Z,37.68
2017-10-22T10:50:32.636Z,37.72
2017-10-22T10:52:59.886Z,37.82
2017-10-22T10:55:27.085Z,37.88
2017-10-22T10:57:54.284Z,37.87
2017-10-22T11:00:21.508Z,37.92
2017-10-22T11:02:48.689Z,37.86
2017-10-22T11:05:15.909Z,37.85
2017-10-22T11:07:43.117Z,37.89
2017-10-22T11:10:10.339Z,37.90
2017-10-22T11:12:37.538Z,37.87
2017-10-22T11:15:04.695Z,37.88
2017-10-22T11:17:31.902Z,37.78
2017-10-22T11:19:59.058Z,37.64
2017-10-22T11:22:26.217Z,37.64
2017-10-22T11:24:53.424Z,37.39
2017-10-22T11:27:20.611Z,37.38
2017-10-22T11:29:47.844Z,37.28
2017-10-22T11:32:15.051Z,37.57
2017-10-22T11:34:42.212Z,37.45
2017-10-22T11:37:09.459Z,37.39
2017-10-22T11:39:36.691Z,37.48
2017-10-22T11:42:03.908Z,37.44
2017-10-22T11:44:31.063Z,37.42
2017-10-22T11:46:58.598Z,37.43
2017-10-22T11:49:27.276Z,37.57
2017-10-22T11:51:54.453Z,37.45
2017-10-22T11:54:21.660Z,37.30
2017-10-22T11:56:48.868Z,37.42
2017-10-22T11:59:16.148Z,37.49
2017-10-22T12:01:43.344Z,37.49
2017-10-22T12:04:10.508Z,37.45
2017-10-22T12:06:37.838Z,37.43
2017-10-22T12:09:05.130Z,37.33
2017-10-22T12:11:32.391Z,37.17
2017-10-22T12:13:59.605Z,37.16
2017-10-22T12:16:26.780Z,37.10
2017-10-22T12:18:53.989Z,37.25
2017-10-22T12:21:21.184Z,37.40
2017-10-22T12:23:48.403Z,37.43
2017-10-22T12:26:15.636Z,37.41
2017-10-22T12:28:42.836Z,37.34
2017-10-22T12:31:10.048Z,37.33
2017-10-22T12:33:37.231Z,37.20
2017-10-22T12:36:04.382Z,37.11
2017-10-22T12:38:31.599Z,37.16
2017-10-22T12:40:58.778Z,37.07
2017-10-22T12:43:25.968Z,37.01
2017-10-22T12:45:53.166Z,37.05
2017-10-22T12:48:20.376Z,36.97
2017-10-22T12:50:47.559Z,37.02
2017-10-22T12:53:14.787Z,36.99
2017-10-22T12:55:41.943Z,36.93
2017-10-22T12:58:09.189Z,36.92
2017-10-22T13:00:36.359Z,36.91
2017-10-22T13:03:03.515Z,37.02
2017-10-22T13:05:30.740Z,36.90
2017-10-22T13:07:57.919Z,36.88
2017-10-22T13:18:07.376Z,37.05
2017-10-22T13:20:35.075Z,37.19
2017-10-22T13:23:02.263Z,37.01
2017-10-22T13:25:29.491Z,36.96
2017-10-22T13:27:56.699Z,37.06
2017-10-22T13:30:23.896Z,36.88
2017-10-22T13:32:51.073Z,36.89
2017-10-22T13:35:18.286Z,36.90
2017-10-22T13:37:45.513Z,36.86
2017-10-22T13:40:12.683Z,36.88
2017-10-22T13:42:39.885Z,36.89
2017-10-22T13:45:07.090Z,36.87
2017-10-22T13:47:34.333Z,36.92
2017-10-22T13:50:01.612Z,36.92
2017-10-22T13:52:28.864Z,37.04
2017-10-22T13:54:56.017Z,36.71
2017-10-22T13:57:23.172Z,36.69
2017-10-22T13:59:50.389Z,36.82
2017-10-22T14:02:17.619Z,36.85
2017-10-22T14:04:44.785Z,36.71
2017-10-22T14:07:11.985Z,36.70
2017-10-22T14:09:39.150Z,36.47
2017-10-22T14:12:06.356Z,36.73
2017-10-22T14:14:33.520Z,36.96
2017-10-22T14:17:00.717Z,37.00
2017-10-22T14:19:27.895Z,37.14
2017-10-22T14:21:55.092Z,37.11
2017-10-22T14:24:22.284Z,36.94
2017-10-22T14:26:49.520Z,36.92
2017-10-22T14:29:16.707Z,37.06
2017-10-22T14:31:43.872Z,37.01
2017-10-22T14:34:11.089Z,37.11
2017-10-22T14:36:38.307Z,37.05
2017-10-22T14:39:05.486Z,36.98
2017-10-22T14:41:32.700Z,36.92
2017-10-22T14:43:59.935Z,36.99
2017-10-22T14:46:27.135Z,37.03
2017-10-22T14:48:54.328Z,37.06
2017-10-22T14:51:21.508Z,36.77
2017-10-22T14:53:48.664Z,36.62
2017-10-22T14:56:15.867Z,36.77
2017-10-22T14:58:43.030Z,37.01
2017-10-22T15:01:10.375Z,36.95
2017-10-22T15:03:37.581Z,36.89
2017-10-22T15:06:04.757Z,36.87
2017-10-22T15:08:31.977Z,36.61
2017-10-22T15:10:59.134Z,36.72
2017-10-22T15:13:26.295Z,36.71
2017-10-22T15:15:53.514Z,36.79
2017-10-22T15:18:20.668Z,36.93
2017-10-22T15:20:47.913Z,36.91
2017-10-22T15:23:15.084Z,36.97
2017-10-22T15:25:42.415Z,36.89
2017-10-22T15:28:09.606Z,36.87
2017-10-22T15:30:36.799Z,36.72
2017-10-22T15:33:03.951Z,36.88
2017-10-22T15:35:31.183Z,36.77
2017-10-22T15:37:58.411Z,36.82
2017-10-22T15:40:25.620Z,36.94
2017-10-22T15:42:52.822Z,36.97
2017-10-22T15:45:19.998Z,36.96
2017-10-22T15:47:47.188Z,36.92
2017-10-22T15:50:14.385Z,36.94
2017-10-22T15:52:41.562Z,37.08
2017-10-22T15:55:08.806Z,37.13
2017-10-22T15:57:35.971Z,36.96
2017-10-22T16:00:03.191Z,37.09
2017-10-22T16:02:30.352Z,37.24
2017-10-22T16:04:57.590Z,37.25
2017-10-22T16:07:24.838Z,37.26
2017-10-22T16:09:52.007Z,37.21
2017-10-22T16:12:19.199Z,37.26
2017-10-22T16:14:46.411Z,37.36
2017-10-22T16:17:13.572Z,37.32
2017-10-22T16:19:40.785Z,37.35
2017-10-22T16:22:07.965Z,37.40
2017-10-22T16:24:35.150Z,37.46
2017-10-22T16:27:02.405Z,37.64
2017-10-22T16:29:29.566Z,37.34
2017-10-22T16:31:56.748Z,37.40
2017-10-22T16:34:24.006Z,37.32
2017-10-22T16:36:51.150Z,37.56
2017-10-22T16:39:18.322Z,37.70
2017-10-22T16:41:45.556Z,37.71
2017-10-22T16:44:12.717Z,37.70
2017-10-22T16:46:39.952Z,37.73
2017-10-22T16:49:07.142Z,37.75
2017-10-22T16:51:34.316Z,37.70
2017-10-22T16:54:01.537Z,37.84
2017-10-22T16:56:28.718Z,37.88
2017-10-22T16:58:55.935Z,37.82
2017-10-22T17:01:23.129Z,37.86
2017-10-22T17:03:50.375Z,37.94
2017-10-22T17:06:17.544Z,37.92
2017-10-22T17:08:44.745Z,37.88
2017-10-22T17:11:13.429Z,37.81
2017-10-22T17:13:40.765Z,37.98
2017-10-22T17:16:08.043Z,38.04
2017-10-22T17:18:35.203Z,38.00
2017-10-22T17:21:02.422Z,38.04
2017-10-22T17:23:29.633Z,37.94
2017-10-22T17:25:56.787Z,37.95
2017-10-22T17:28:23.948Z,38.01
2017-10-22T17:30:51.143Z,38.02
2017-10-22T17:33:18.379Z,38.05
2017-10-22T17:35:45.552Z,37.99
2017-10-22T17:38:12.790Z,38.01
2017-10-22T17:40:40.017Z,38.13
2017-10-22T17:43:07.212Z,38.12
2017-10-22T17:45:34.413Z,38.13
2017-10-22T17:48:01.603Z,38.14
2017-10-22T17:50:28.815Z,38.14
2017-10-22T17:52:56.023Z,38.27
2017-10-22T17:55:23.190Z,38.17
2017-10-22T17:57:50.361Z,38.09
2017-10-22T18:00:17.606Z,38.24
2017-10-22T18:02:44.789Z,38.21
2017-10-22T18:05:12.028Z,38.16
2017-10-22T18:07:39.231Z,38.23
2017-10-22T18:10:06.427Z,38.21
2017-10-22T18:12:33.674Z,38.28
2017-10-22T18:15:00.892Z,38.22
2017-10-22T18:17:29.006Z,38.25
2017-10-22T18:19:56.148Z,38.25
2017-10-22T18:22:23.402Z,38.30
2017-10-22T18:24:50.583Z,38.27
2017-10-22T18:27:17.784Z,38.23
2017-10-22T18:29:45.015Z,38.39
2017-10-22T18:32:12.212Z,38.22
2017-10-22T18:34:39.447Z,38.36
2017-10-22T18:37:06.670Z,38.39
2017-10-22T18:39:33.901Z,38.35
2017-10-22T18:42:01.238Z,38.34
2017-10-22T18:44:28.477Z,38.40
2017-10-22T18:46:55.680Z,38.38
2017-10-22T18:49:22.943Z,38.46
2017-10-22T18:51:50.162Z,38.48
2017-10-22T18:54:17.344Z,38.44
2017-10-22T18:56:44.567Z,38.48
2017-10-22T18:59:11.870Z,38.52
2017-10-22T19:01:40.562Z,38.53
2017-10-22T19:04:07.735Z,38.51
2017-10-22T19:06:34.992Z,38.56
2017-10-22T19:09:02.142Z,38.50
2017-10-22T19:11:29.311Z,38.57
2017-10-22T19:13:56.605Z,38.60
2017-10-22T19:16:23.766Z,38.47
2017-10-22T19:18:50.951Z,38.50
2017-10-22T19:21:18.151Z,38.52
2017-10-22T19:23:45.349Z,38.51
2017-10-22T19:26:12.626Z,38.58
2017-10-22T19:28:39.789Z,38.59
2017-10-22T19:31:06.999Z,38.53
2017-10-22T19:33:34.159Z,38.59
2017-10-22T19:36:01.367Z,38.63
2017-10-22T19:38:28.566Z,38.56
2017-10-22T19:40:55.899Z,38.62
2017-10-22T19:43:23.063Z,38.71
2017-10-22T19:45:50.214Z,38.85
2017-10-22T19:48:18.471Z,38.89
2017-10-22T19:50:45.674Z,39.01
2017-10-22T19:53:12.891Z,39.20
2017-10-22T19:55:40.166Z,39.25
2017-10-22T19:58:07.343Z,39.30
2017-10-22T20:00:34.499Z,39.41
2017-10-22T20:03:01.725Z,39.46
2017-10-22T20:05:28.954Z,39.56
2017-10-22T20:07:56.159Z,39.55
2017-10-22T20:10:23.355Z,39.65
2017-10-22T20:12:50.575Z,39.62
2017-10-22T20:15:17.808Z,39.72
2017-10-22T20:17:45.028Z,39.83
2017-10-22T20:20:12.198Z,39.84
2017-10-22T20:22:39.433Z,39.90
2017-10-22T20:25:07.848Z,39.91
2017-10-22T20:27:35.067Z,39.99
2017-10-22T20:30:02.368Z,40.04
2017-10-22T20:32:29.527Z,40.06
2017-10-22T20:34:56.754Z,40.06
2017-10-22T20:37:23.956Z,40.09
2017-10-22T20:39:51.163Z,40.15
2017-10-22T20:42:18.367Z,40.18
2017-10-22T20:44:45.613Z,40.26
2017-10-22T20:47:12.866Z,40.23
2017-10-22T20:49:40.045Z,40.27
2017-10-22T20:52:07.257Z,40.28
2017-10-22T20:54:34.426Z,40.36
2017-10-22T20:57:01.674Z,40.36
2017-10-22T20:59:28.841Z,40.37
2017-10-22T21:01:56.158Z,40.38
2017-10-22T21:04:23.323Z,40.44
2017-10-22T21:06:50.576Z,40.45
2017-10-22T21:09:17.829Z,40.52
2017-10-22T21:11:45.063Z,40.54
2017-10-22T21:14:12.346Z,40.57
2017-10-22T21:16:39.561Z,40.57
2017-10-22T21:19:06.756Z,40.58
2017-10-22T21:21:33.970Z,40.57
2017-10-22T21:24:01.143Z,40.57
2017-10-22T21:26:28.516Z,40.61
2017-10-22T21:28:55.684Z,40.62
2017-10-22T21:31:22.912Z,40.62
2017-10-22T21:33:50.084Z,40.70
2017-10-22T21:36:17.309Z,40.70
2017-10-22T21:38:44.490Z,40.73
2017-10-22T21:41:11.720Z,40.74
2017-10-22T21:43:38.921Z,40.79
2017-10-22T21:46:06.218Z,40.77
2017-10-22T21:48:33.375Z,40.76
2017-10-22T21:51:00.677Z,40.79
2017-10-22T21:53:27.880Z,40.79
2017-10-22T21:55:55.062Z,40.84
2017-10-22T21:58:22.277Z,40.86
2017-10-22T22:00:49.523Z,40.88
2017-10-22T22:03:16.713Z,40.90
2017-10-22T22:05:43.919Z,40.89
2017-10-22T22:08:11.170Z,40.89
2017-10-22T22:10:38.379Z,40.87
2017-10-22T22:13:05.599Z,40.93
2017-10-22T22:15:32.822Z,40.95
2017-10-22T22:18:00.092Z,41.00
2017-10-22T22:20:27.286Z,41.02
2017-10-22T22:22:54.434Z,41.02
2017-10-22T22:25:21.666Z,41.08
2017-10-22T22:27:48.841Z,41.05
2017-10-22T22:30:16.058Z,41.08
2017-10-22T22:32:43.244Z,41.05
2017-10-22T22:35:10.483Z,41.06
2017-10-22T22:37:37.670Z,41.11
2017-10-22T22:40:04.928Z,41.08
2017-10-22T22:42:32.139Z,41.14
2017-10-22T22:44:59.293Z,41.15
2017-10-22T22:47:26.707Z,41.18
2017-10-22T22:49:53.914Z,41.21
2017-10-22T22:52:21.170Z,41.20
2017-10-22T22:54:48.369Z,41.19
2017-10-22T22:57:15.595Z,41.22
2017-10-22T22:59:42.783Z,41.26
2017-10-22T23:02:09.939Z,41.26
2017-10-22T23:04:37.175Z,41.29
2017-10-22T23:07:04.335Z,41.28
2017-10-22T23:09:31.559Z,41.32
2017-10-22T23:11:58.832Z,41.34
2017-10-22T23:14:26.043Z,41.37
2017-10-22T23:16:53.303Z,41.35
2017-10-22T23:19:20.479Z,41.42
2017-10-22T23:21:47.920Z,41.45
2017-10-22T23:24:15.080Z,41.46
2017-10-22T23:26:42.527Z,41.47
2017-10-22T23:29:09.773Z,41.50
2017-10-22T23:31:36.951Z,41.53
2017-10-22T23:34:04.184Z,41.52
2017-10-22T23:36:31.350Z,41.57
2017-10-22T23:38:58.529Z,41.55
2017-10-22T23:41:25.675Z,41.59
2017-10-22T23:43:52.923Z,41.63
2017-10-22T23:46:20.163Z,41.65
2017-10-22T23:48:47.397Z,41.70
2017-10-22T23:51:14.739Z,41.76
2017-10-22T23:53:41.904Z,41.76
2017-10-22T23:56:09.141Z,41.75
2017-10-22T23:58:36.332Z,41.76
